sensor_id;sensor_type;location;lat;lon;timestamp;pressure;altitude;pressure_sealevel;temperature
69186;BMP280;56298;49.246;9.410;2023-01-31T00:01:08;100288.69;;;3.15
69186;BMP280;56298;49.246;9.410;2023-01-31T00:03:33;100291.16;;;3.11
69186;BMP280;56298;49.246;9.410;2023-01-31T00:06:09;100290.06;;;3.12
69186;BMP280;56298;49.246;9.410;2023-01-31T00:08:34;100283.28;;;3.10
69186;BMP280;56298;49.246;9.410;2023-01-31T00:11:00;100302.53;;;3.03
69186;BMP280;56298;49.246;9.410;2023-01-31T00:13:26;100309.06;;;3.02
69186;BMP280;56298;49.246;9.410;2023-01-31T00:15:55;100302.53;;;3.18
69186;BMP280;56298;49.246;9.410;2023-01-31T00:18:20;100293.06;;;3.16
69186;BMP280;56298;49.246;9.410;2023-01-31T00:20:45;100304.97;;;3.25
69186;BMP280;56298;49.246;9.410;2023-01-31T00:23:11;100310.94;;;3.12
69186;BMP280;56298;49.246;9.410;2023-01-31T00:25:36;100313.09;;;3.15
69186;BMP280;56298;49.246;9.410;2023-01-31T00:28:01;100305.50;;;3.22
69186;BMP280;56298;49.246;9.410;2023-01-31T00:30:26;100306.88;;;3.14
69186;BMP280;56298;49.246;9.410;2023-01-31T00:32:52;100291.13;;;3.22
69186;BMP280;56298;49.246;9.410;2023-01-31T00:35:17;100294.94;;;3.21
69186;BMP280;56298;49.246;9.410;2023-01-31T00:37:42;100305.53;;;3.12
69186;BMP280;56298;49.246;9.410;2023-01-31T00:40:08;100301.72;;;3.18
69186;BMP280;56298;49.246;9.410;2023-01-31T00:42:33;100304.97;;;3.15
69186;BMP280;56298;49.246;9.410;2023-01-31T00:44:59;100306.06;;;3.14
69186;BMP280;56298;49.246;9.410;2023-01-31T00:47:24;100312.56;;;3.13
69186;BMP280;56298;49.246;9.410;2023-01-31T00:49:49;100316.88;;;3.24
69186;BMP280;56298;49.246;9.410;2023-01-31T00:52:14;100307.38;;;3.22
69186;BMP280;56298;49.246;9.410;2023-01-31T00:54:40;100310.91;;;3.22
69186;BMP280;56298;49.246;9.410;2023-01-31T00:57:06;100308.22;;;3.17
69186;BMP280;56298;49.246;9.410;2023-01-31T00:59:32;100307.13;;;3.23
69186;BMP280;56298;49.246;9.410;2023-01-31T01:01:57;100315.22;;;3.28
69186;BMP280;56298;49.246;9.410;2023-01-31T01:04:22;100302.53;;;3.18
69186;BMP280;56298;49.246;9.410;2023-01-31T01:06:48;100304.44;;;3.08
69186;BMP280;56298;49.246;9.410;2023-01-31T01:09:15;100308.25;;;3.01
69186;BMP280;56298;49.246;9.410;2023-01-31T01:11:40;100313.38;;;3.03
69186;BMP280;56298;49.246;9.410;2023-01-31T01:14:05;100313.09;;;3.15
69186;BMP280;56298;49.246;9.410;2023-01-31T01:16:36;100320.69;;;3.13
69186;BMP280;56298;49.246;9.410;2023-01-31T01:19:04;100323.41;;;3.13
69186;BMP280;56298;49.246;9.410;2023-01-31T01:21:30;100330.72;;;3.12
69186;BMP280;56298;49.246;9.410;2023-01-31T01:23:59;100320.94;;;3.16
69186;BMP280;56298;49.246;9.410;2023-01-31T01:26:27;100326.38;;;3.16
69186;BMP280;56298;49.246;9.410;2023-01-31T01:28:54;100328.78;;;3.23
69186;BMP280;56298;49.246;9.410;2023-01-31T01:31:20;100327.72;;;3.19
69186;BMP280;56298;49.246;9.410;2023-01-31T01:33:47;100330.97;;;3.26
69186;BMP280;56298;49.246;9.410;2023-01-31T01:36:14;100338.84;;;3.23
69186;BMP280;56298;49.246;9.410;2023-01-31T01:38:41;100328.28;;;3.21
69186;BMP280;56298;49.246;9.410;2023-01-31T01:41:07;100335.84;;;3.24
69186;BMP280;56298;49.246;9.410;2023-01-31T01:46:04;100345.84;;;3.34
69186;BMP280;56298;49.246;9.410;2023-01-31T01:48:29;100341.78;;;3.31
69186;BMP280;56298;49.246;9.410;2023-01-31T01:50:54;100341.47;;;3.38
69186;BMP280;56298;49.246;9.410;2023-01-31T01:53:22;100339.56;;;3.39
69186;BMP280;56298;49.246;9.410;2023-01-31T01:58:25;100348.78;;;3.38
69186;BMP280;56298;49.246;9.410;2023-01-31T02:00:52;100352.63;;;3.31
69186;BMP280;56298;49.246;9.410;2023-01-31T02:03:18;100342.88;;;3.30
69186;BMP280;56298;49.246;9.410;2023-01-31T02:05:51;100353.41;;;3.37
69186;BMP280;56298;49.246;9.410;2023-01-31T02:08:18;100340.34;;;3.55
69186;BMP280;56298;49.246;9.410;2023-01-31T02:10:52;100338.75;;;3.49
69186;BMP280;56298;49.246;9.410;2023-01-31T02:13:19;100341.19;;;3.50
69186;BMP280;56298;49.246;9.410;2023-01-31T02:15:45;100340.13;;;3.41
69186;BMP280;56298;49.246;9.410;2023-01-31T02:18:11;100335.53;;;3.31
69186;BMP280;56298;49.246;9.410;2023-01-31T02:21:10;100350.22;;;3.25
69186;BMP280;56298;49.246;9.410;2023-01-31T02:27:12;100350.47;;;3.23
69186;BMP280;56298;49.246;9.410;2023-01-31T02:32:40;100360.50;;;3.17
69186;BMP280;56298;49.246;9.410;2023-01-31T02:35:19;100361.06;;;3.20
69186;BMP280;56298;49.246;9.410;2023-01-31T02:45:38;100355.09;;;3.23
69186;BMP280;56298;49.246;9.410;2023-01-31T02:51:07;100351.56;;;3.27
69186;BMP280;56298;49.246;9.410;2023-01-31T02:53:37;100359.72;;;3.17
69186;BMP280;56298;49.246;9.410;2023-01-31T02:56:13;100353.47;;;3.16
69186;BMP280;56298;49.246;9.410;2023-01-31T02:58:47;100354.28;;;3.17
69186;BMP280;56298;49.246;9.410;2023-01-31T03:01:19;100354.00;;;3.24
69186;BMP280;56298;49.246;9.410;2023-01-31T03:03:47;100353.72;;;3.15
69186;BMP280;56298;49.246;9.410;2023-01-31T03:08:52;100359.97;;;3.26
69186;BMP280;56298;49.246;9.410;2023-01-31T03:11:24;100355.66;;;3.20
69186;BMP280;56298;49.246;9.410;2023-01-31T03:14:25;100357.81;;;3.07
69186;BMP280;56298;49.246;9.410;2023-01-31T03:16:58;100353.22;;;3.08
69186;BMP280;56298;49.246;9.410;2023-01-31T03:19:46;100359.44;;;3.03
69186;BMP280;56298;49.246;9.410;2023-01-31T03:22:23;100357.28;;;3.10
69186;BMP280;56298;49.246;9.410;2023-01-31T03:24:49;100362.69;;;3.10
69186;BMP280;56298;49.246;9.410;2023-01-31T03:27:16;100370.00;;;3.10
69186;BMP280;56298;49.246;9.410;2023-01-31T03:29:42;100367.31;;;3.04
69186;BMP280;56298;49.246;9.410;2023-01-31T03:32:21;100372.19;;;3.08
69186;BMP280;56298;49.246;9.410;2023-01-31T03:34:48;100362.97;;;3.14
69186;BMP280;56298;49.246;9.410;2023-01-31T03:37:36;100370.28;;;3.18
69186;BMP280;56298;49.246;9.410;2023-01-31T03:40:10;100369.44;;;3.28
69186;BMP280;56298;49.246;9.410;2023-01-31T03:42:46;100376.50;;;3.19
69186;BMP280;56298;49.246;9.410;2023-01-31T03:45:18;100374.59;;;3.25
69186;BMP280;56298;49.246;9.410;2023-01-31T03:47:47;100380.84;;;3.15
69186;BMP280;56298;49.246;9.410;2023-01-31T03:50:39;100386.56;;;3.18
69186;BMP280;56298;49.246;9.410;2023-01-31T03:53:12;100398.75;;;3.21
69186;BMP280;56298;49.246;9.410;2023-01-31T03:55:42;100393.59;;;3.25
69186;BMP280;56298;49.246;9.410;2023-01-31T03:58:12;100397.97;;;3.00
69186;BMP280;56298;49.246;9.410;2023-01-31T04:00:40;100403.88;;;3.02
69186;BMP280;56298;49.246;9.410;2023-01-31T04:03:15;100395.75;;;3.07
69186;BMP280;56298;49.246;9.410;2023-01-31T04:05:42;100402.00;;;3.13
69186;BMP280;56298;49.246;9.410;2023-01-31T04:08:07;100403.06;;;3.17
69186;BMP280;56298;49.246;9.410;2023-01-31T04:10:32;100401.72;;;3.14
69186;BMP280;56298;49.246;9.410;2023-01-31T04:12:58;100408.75;;;3.15
69186;BMP280;56298;49.246;9.410;2023-01-31T04:15:23;100415.00;;;3.21
69186;BMP280;56298;49.246;9.410;2023-01-31T04:17:48;100420.13;;;3.17
69186;BMP280;56298;49.246;9.410;2023-01-31T04:20:14;100415.28;;;3.14
69186;BMP280;56298;49.246;9.410;2023-01-31T04:22:39;100419.34;;;3.17
69186;BMP280;56298;49.246;9.410;2023-01-31T04:25:05;100419.06;;;3.13
69186;BMP280;56298;49.246;9.410;2023-01-31T04:27:30;100422.06;;;3.12
69186;BMP280;56298;49.246;9.410;2023-01-31T04:29:56;100416.06;;;3.20
69186;BMP280;56298;49.246;9.410;2023-01-31T04:32:21;100412.00;;;3.12
69186;BMP280;56298;49.246;9.410;2023-01-31T04:34:46;100408.78;;;3.10
69186;BMP280;56298;49.246;9.410;2023-01-31T04:37:11;100405.50;;;3.08
69186;BMP280;56298;49.246;9.410;2023-01-31T04:39:37;100409.59;;;3.00
69186;BMP280;56298;49.246;9.410;2023-01-31T04:42:02;100404.16;;;3.05
69186;BMP280;56298;49.246;9.410;2023-01-31T04:44:27;100406.34;;;2.98
69186;BMP280;56298;49.246;9.410;2023-01-31T04:46:52;100407.16;;;3.14
69186;BMP280;56298;49.246;9.410;2023-01-31T04:49:18;100408.78;;;3.05
69186;BMP280;56298;49.246;9.410;2023-01-31T04:51:43;100403.91;;;2.97
69186;BMP280;56298;49.246;9.410;2023-01-31T04:54:08;100396.88;;;2.96
69186;BMP280;56298;49.246;9.410;2023-01-31T04:56:33;100400.38;;;2.96
69186;BMP280;56298;49.246;9.410;2023-01-31T04:58:59;100403.66;;;2.93
69186;BMP280;56298;49.246;9.410;2023-01-31T05:01:25;100403.66;;;2.88
69186;BMP280;56298;49.246;9.410;2023-01-31T05:03:50;100397.94;;;2.79
69186;BMP280;56298;49.246;9.410;2023-01-31T05:06:15;100396.31;;;2.73
69186;BMP280;56298;49.246;9.410;2023-01-31T05:08:40;100389.81;;;2.84
69186;BMP280;56298;49.246;9.410;2023-01-31T05:11:06;100403.66;;;2.88
69186;BMP280;56298;49.246;9.410;2023-01-31T05:13:33;100400.94;;;2.88
69186;BMP280;56298;49.246;9.410;2023-01-31T05:16:04;100396.88;;;2.85
69186;BMP280;56298;49.246;9.410;2023-01-31T05:18:29;100396.59;;;2.87
69186;BMP280;56298;49.246;9.410;2023-01-31T05:20:54;100391.16;;;2.76
69186;BMP280;56298;49.246;9.410;2023-01-31T05:23:20;100386.56;;;2.82
69186;BMP280;56298;49.246;9.410;2023-01-31T05:25:48;100386.84;;;2.86
69186;BMP280;56298;49.246;9.410;2023-01-31T05:28:14;100392.78;;;2.77
69186;BMP280;56298;49.246;9.410;2023-01-31T05:30:39;100394.69;;;2.77
69186;BMP280;56298;49.246;9.410;2023-01-31T05:33:04;100387.09;;;2.79
69186;BMP280;56298;49.246;9.410;2023-01-31T05:35:33;100397.66;;;2.86
69186;BMP280;56298;49.246;9.410;2023-01-31T05:37:59;100392.78;;;2.72
69186;BMP280;56298;49.246;9.410;2023-01-31T05:40:24;100388.44;;;2.71
69186;BMP280;56298;49.246;9.410;2023-01-31T05:42:54;100396.06;;;2.69
69186;BMP280;56298;49.246;9.410;2023-01-31T05:45:20;100397.13;;;2.63
69186;BMP280;56298;49.246;9.410;2023-01-31T05:47:46;100393.88;;;2.56
69186;BMP280;56298;49.246;9.410;2023-01-31T05:50:12;100384.13;;;2.55
69186;BMP280;56298;49.246;9.410;2023-01-31T05:52:37;100396.00;;;2.43
69186;BMP280;56298;49.246;9.410;2023-01-31T05:55:03;100400.88;;;2.41
69186;BMP280;56298;49.246;9.410;2023-01-31T05:57:29;100398.16;;;2.36
69186;BMP280;56298;49.246;9.410;2023-01-31T05:59:54;100400.91;;;2.51
69186;BMP280;56298;49.246;9.410;2023-01-31T06:02:19;100396.59;;;2.56
69186;BMP280;56298;49.246;9.410;2023-01-31T06:04:44;100408.78;;;2.58
69186;BMP280;56298;49.246;9.410;2023-01-31T06:07:09;100403.63;;;2.72
69186;BMP280;56298;49.246;9.410;2023-01-31T06:09:35;100398.75;;;2.74
69186;BMP280;56298;49.246;9.410;2023-01-31T06:12:03;100405.25;;;2.73
69186;BMP280;56298;49.246;9.410;2023-01-31T06:14:28;100415.53;;;2.82
69186;BMP280;56298;49.246;9.410;2023-01-31T06:16:54;100409.84;;;2.78
69186;BMP280;56298;49.246;9.410;2023-01-31T06:19:19;100419.06;;;2.82
69186;BMP280;56298;49.246;9.410;2023-01-31T06:21:49;100431.78;;;2.71
69186;BMP280;56298;49.246;9.410;2023-01-31T06:24:14;100429.63;;;2.63
69186;BMP280;56298;49.246;9.410;2023-01-31T06:26:40;100433.69;;;2.65
69186;BMP280;56298;49.246;9.410;2023-01-31T06:29:05;100449.13;;;2.55
69186;BMP280;56298;49.246;9.410;2023-01-31T06:31:30;100435.03;;;2.63
69186;BMP280;56298;49.246;9.410;2023-01-31T06:33:55;100442.63;;;2.61
69186;BMP280;56298;49.246;9.410;2023-01-31T06:36:20;100443.16;;;2.68
69186;BMP280;56298;49.246;9.410;2023-01-31T06:38:50;100443.97;;;2.58
69186;BMP280;56298;49.246;9.410;2023-01-31T06:41:16;100438.56;;;2.58
69186;BMP280;56298;49.246;9.410;2023-01-31T06:43:42;100442.06;;;2.54
69186;BMP280;56298;49.246;9.410;2023-01-31T06:46:07;100448.81;;;2.56
69186;BMP280;56298;49.246;9.410;2023-01-31T06:48:32;100447.78;;;2.57
69186;BMP280;56298;49.246;9.410;2023-01-31T06:50:58;100455.59;;;2.54
69186;BMP280;56298;49.246;9.410;2023-01-31T06:53:23;100449.13;;;2.60
69186;BMP280;56298;49.246;9.410;2023-01-31T06:55:48;100460.19;;;2.43
69186;BMP280;56298;49.246;9.410;2023-01-31T06:58:13;100455.00;;;2.36
69186;BMP280;56298;49.246;9.410;2023-01-31T07:00:39;100456.63;;;2.37
69186;BMP280;56298;49.246;9.410;2023-01-31T07:03:04;100459.63;;;2.41
69186;BMP280;56298;49.246;9.410;2023-01-31T07:05:29;100454.22;;;2.51
69186;BMP280;56298;49.246;9.410;2023-01-31T07:07:54;100456.69;;;2.58
69186;BMP280;56298;49.246;9.410;2023-01-31T07:10:20;100457.50;;;2.53
69186;BMP280;56298;49.246;9.410;2023-01-31T07:12:45;100460.72;;;2.45
69186;BMP280;56298;49.246;9.410;2023-01-31T07:15:10;100456.66;;;2.47
69186;BMP280;56298;49.246;9.410;2023-01-31T07:17:36;100453.13;;;2.42
69186;BMP280;56298;49.246;9.410;2023-01-31T07:20:01;100442.00;;;2.38
69186;BMP280;56298;49.246;9.410;2023-01-31T07:22:27;100442.59;;;2.50
69186;BMP280;56298;49.246;9.410;2023-01-31T07:24:52;100441.78;;;2.45
69186;BMP280;56298;49.246;9.410;2023-01-31T07:27:17;100449.38;;;2.48
69186;BMP280;56298;49.246;9.410;2023-01-31T07:29:43;100453.97;;;2.58
69186;BMP280;56298;49.246;9.410;2023-01-31T07:32:08;100459.41;;;2.68
69186;BMP280;56298;49.246;9.410;2023-01-31T07:34:34;100453.19;;;2.78
69186;BMP280;56298;49.246;9.410;2023-01-31T07:36:59;100467.84;;;2.82
69186;BMP280;56298;49.246;9.410;2023-01-31T07:39:25;100456.16;;;2.50
69186;BMP280;56298;49.246;9.410;2023-01-31T07:41:50;100459.38;;;2.53
69186;BMP280;56298;49.246;9.410;2023-01-31T07:44:16;100447.22;;;2.55
69186;BMP280;56298;49.246;9.410;2023-01-31T07:46:41;100454.56;;;2.81
69186;BMP280;56298;49.246;9.410;2023-01-31T07:49:08;100453.72;;;2.80
69186;BMP280;56298;49.246;9.410;2023-01-31T07:51:34;100459.44;;;2.78
69186;BMP280;56298;49.246;9.410;2023-01-31T07:54:00;100449.97;;;2.86
69186;BMP280;56298;49.246;9.410;2023-01-31T07:56:25;100454.81;;;2.89
69186;BMP280;56298;49.246;9.410;2023-01-31T07:58:51;100458.38;;;2.95
69186;BMP280;56298;49.246;9.410;2023-01-31T08:01:21;100461.59;;;3.08
69186;BMP280;56298;49.246;9.410;2023-01-31T08:04:07;100468.13;;;3.07
69186;BMP280;56298;49.246;9.410;2023-01-31T08:06:33;100472.19;;;3.04
69186;BMP280;56298;49.246;9.410;2023-01-31T08:08:59;100472.97;;;3.10
69186;BMP280;56298;49.246;9.410;2023-01-31T08:11:25;100468.66;;;3.09
69186;BMP280;56298;49.246;9.410;2023-01-31T08:13:51;100470.81;;;2.96
69186;BMP280;56298;49.246;9.410;2023-01-31T08:16:16;100466.50;;;2.90
69186;BMP280;56298;49.246;9.410;2023-01-31T08:18:41;100484.63;;;2.89
69186;BMP280;56298;49.246;9.410;2023-01-31T08:21:10;100489.75;;;2.75
69186;BMP280;56298;49.246;9.410;2023-01-31T08:23:36;100480.84;;;2.90
69186;BMP280;56298;49.246;9.410;2023-01-31T08:26:05;100484.91;;;2.83
69186;BMP280;56298;49.246;9.410;2023-01-31T08:28:31;100477.06;;;2.86
69186;BMP280;56298;49.246;9.410;2023-01-31T08:30:57;100483.00;;;2.88
69186;BMP280;56298;49.246;9.410;2023-01-31T08:33:23;100475.72;;;2.99
69186;BMP280;56298;49.246;9.410;2023-01-31T08:35:48;100483.81;;;2.84
69186;BMP280;56298;49.246;9.410;2023-01-31T08:38:14;100477.84;;;2.76
69186;BMP280;56298;49.246;9.410;2023-01-31T08:40:39;100475.69;;;2.84
69186;BMP280;56298;49.246;9.410;2023-01-31T08:43:04;100477.56;;;2.78
69186;BMP280;56298;49.246;9.410;2023-01-31T08:45:30;100478.66;;;2.72
69186;BMP280;56298;49.246;9.410;2023-01-31T08:47:57;100481.38;;;2.67
69186;BMP280;56298;49.246;9.410;2023-01-31T08:50:25;100489.50;;;2.61
69186;BMP280;56298;49.246;9.410;2023-01-31T08:52:54;100477.03;;;2.65
69186;BMP280;56298;49.246;9.410;2023-01-31T08:55:21;100480.03;;;2.69
69186;BMP280;56298;49.246;9.410;2023-01-31T08:57:47;100487.63;;;2.83
69186;BMP280;56298;49.246;9.410;2023-01-31T09:00:13;100488.16;;;2.90
69186;BMP280;56298;49.246;9.410;2023-01-31T09:02:38;100480.03;;;2.85
69186;BMP280;56298;49.246;9.410;2023-01-31T09:05:04;100478.94;;;2.96
69186;BMP280;56298;49.246;9.410;2023-01-31T09:07:32;100477.03;;;3.12
69186;BMP280;56298;49.246;9.410;2023-01-31T09:09:57;100470.56;;;3.13
69186;BMP280;56298;49.246;9.410;2023-01-31T09:12:22;100457.81;;;3.19
69186;BMP280;56298;49.246;9.410;2023-01-31T09:14:49;100462.13;;;3.20
69186;BMP280;56298;49.246;9.410;2023-01-31T09:17:15;100458.31;;;3.42
69186;BMP280;56298;49.246;9.410;2023-01-31T09:19:40;100459.09;;;3.58
69186;BMP280;56298;49.246;9.410;2023-01-31T09:22:05;100459.06;;;3.74
69186;BMP280;56298;49.246;9.410;2023-01-31T09:24:31;100460.16;;;3.72
69186;BMP280;56298;49.246;9.410;2023-01-31T09:26:56;100466.66;;;3.82
69186;BMP280;56298;49.246;9.410;2023-01-31T09:29:21;100463.94;;;3.82
69186;BMP280;56298;49.246;9.410;2023-01-31T09:31:52;100463.97;;;3.66
69186;BMP280;56298;49.246;9.410;2023-01-31T09:34:18;100467.22;;;3.58
69186;BMP280;56298;49.246;9.410;2023-01-31T09:36:43;100466.47;;;3.47
69186;BMP280;56298;49.246;9.410;2023-01-31T09:39:10;100463.47;;;3.49
69186;BMP280;56298;49.246;9.410;2023-01-31T09:41:47;100447.47;;;3.52
69186;BMP280;56298;49.246;9.410;2023-01-31T09:44:28;100459.41;;;3.51
69186;BMP280;56298;49.246;9.410;2023-01-31T09:47:07;100449.34;;;3.57
69186;BMP280;56298;49.246;9.410;2023-01-31T09:49:43;100456.91;;;3.60
69186;BMP280;56298;49.246;9.410;2023-01-31T09:52:11;100449.06;;;3.64
69186;BMP280;56298;49.246;9.410;2023-01-31T09:54:39;100442.53;;;3.70
69186;BMP280;56298;49.246;9.410;2023-01-31T09:59:48;100446.88;;;3.66
69186;BMP280;56298;49.246;9.410;2023-01-31T10:05:36;100427.69;;;3.52
69186;BMP280;56298;49.246;9.410;2023-01-31T10:08:21;100433.88;;;3.63
69186;BMP280;56298;49.246;9.410;2023-01-31T10:10:56;100444.19;;;3.61
69186;BMP280;56298;49.246;9.410;2023-01-31T10:13:27;100432.22;;;3.67
69186;BMP280;56298;49.246;9.410;2023-01-31T10:16:03;100437.13;;;3.65
69186;BMP280;56298;49.246;9.410;2023-01-31T10:18:34;100439.47;;;3.92
69186;BMP280;56298;49.246;9.410;2023-01-31T10:21:05;100438.06;;;4.00
69186;BMP280;56298;49.246;9.410;2023-01-31T10:23:38;100446.16;;;4.16
69186;BMP280;56298;49.246;9.410;2023-01-31T10:26:19;100437.00;;;3.91
69186;BMP280;56298;49.246;9.410;2023-01-31T10:31:32;100441.88;;;3.99
69186;BMP280;56298;49.246;9.410;2023-01-31T10:34:13;100447.00;;;4.06
69186;BMP280;56298;49.246;9.410;2023-01-31T10:36:50;100456.53;;;3.98
69186;BMP280;56298;49.246;9.410;2023-01-31T10:39:30;100465.25;;;3.84
69186;BMP280;56298;49.246;9.410;2023-01-31T10:44:49;100447.97;;;3.70
69186;BMP280;56298;49.246;9.410;2023-01-31T10:47:17;100438.81;;;3.50
69186;BMP280;56298;49.246;9.410;2023-01-31T10:49:44;100430.41;;;3.47
69186;BMP280;56298;49.246;9.410;2023-01-31T10:52:18;100427.38;;;3.58
69186;BMP280;56298;49.246;9.410;2023-01-31T10:57:32;100408.09;;;3.60
69186;BMP280;56298;49.246;9.410;2023-01-31T10:59:57;100405.66;;;3.69
69186;BMP280;56298;49.246;9.410;2023-01-31T11:02:24;100408.09;;;3.65
69186;BMP280;56298;49.246;9.410;2023-01-31T11:04:53;100411.00;;;3.84
69186;BMP280;56298;49.246;9.410;2023-01-31T11:07:20;100404.47;;;3.85
69186;BMP280;56298;49.246;9.410;2023-01-31T11:09:48;100405.81;;;3.98
69186;BMP280;56298;49.246;9.410;2023-01-31T11:12:19;100407.75;;;3.88
69186;BMP280;56298;49.246;9.410;2023-01-31T11:14:45;100407.19;;;3.85
69186;BMP280;56298;49.246;9.410;2023-01-31T11:17:27;100390.72;;;3.77
69186;BMP280;56298;49.246;9.410;2023-01-31T11:19:54;100391.19;;;3.89
69186;BMP280;56298;49.246;9.410;2023-01-31T11:22:33;100378.72;;;3.83
69186;BMP280;56298;49.246;9.410;2023-01-31T11:25:01;100377.44;;;3.70
69186;BMP280;56298;49.246;9.410;2023-01-31T11:27:39;100373.34;;;3.78
69186;BMP280;56298;49.246;9.410;2023-01-31T11:30:23;100373.06;;;3.79
69186;BMP280;56298;49.246;9.410;2023-01-31T11:32:49;100371.69;;;3.82
69186;BMP280;56298;49.246;9.410;2023-01-31T11:40:36;100381.41;;;3.93
69186;BMP280;56298;49.246;9.410;2023-01-31T11:43:05;100374.03;;;3.99
69186;BMP280;56298;49.246;9.410;2023-01-31T11:45:36;100358.59;;;3.94
69186;BMP280;56298;49.246;9.410;2023-01-31T11:48:08;100347.66;;;4.05
69186;BMP280;56298;49.246;9.410;2023-01-31T11:51:04;100323.75;;;4.47
69186;BMP280;56298;49.246;9.410;2023-01-31T11:53:37;100318.72;;;4.64
69186;BMP280;56298;49.246;9.410;2023-01-31T11:56:24;100312.25;;;4.55
69186;BMP280;56298;49.246;9.410;2023-01-31T11:58:52;100305.72;;;4.56
69186;BMP280;56298;49.246;9.410;2023-01-31T12:01:22;100303.50;;;4.63
69186;BMP280;56298;49.246;9.410;2023-01-31T12:03:50;100299.09;;;4.68
69186;BMP280;56298;49.246;9.410;2023-01-31T12:06:30;100307.59;;;4.61
69186;BMP280;56298;49.246;9.410;2023-01-31T12:08:57;100303.78;;;4.62
69186;BMP280;56298;49.246;9.410;2023-01-31T12:11:53;100292.56;;;4.69
69186;BMP280;56298;49.246;9.410;2023-01-31T12:14:18;100288.78;;;4.94
69186;BMP280;56298;49.246;9.410;2023-01-31T12:16:45;100282.47;;;4.99
69186;BMP280;56298;49.246;9.410;2023-01-31T12:28:23;100238.91;;;4.85
69186;BMP280;56298;49.246;9.410;2023-01-31T12:39:13;100247.78;;;4.90
69186;BMP280;56298;49.246;9.410;2023-01-31T12:41:40;100245.19;;;4.80
69186;BMP280;56298;49.246;9.410;2023-01-31T12:46:53;100249.34;;;4.72
69186;BMP280;56298;49.246;9.410;2023-01-31T12:52:19;100231.78;;;4.89
69186;BMP280;56298;49.246;9.410;2023-01-31T12:57:37;100212.72;;;5.13
69186;BMP280;56298;49.246;9.410;2023-01-31T13:05:41;100220.91;;;5.08
69186;BMP280;56298;49.246;9.410;2023-01-31T13:08:16;100216.06;;;5.05
69186;BMP280;56298;49.246;9.410;2023-01-31T13:10:57;100213.06;;;5.06
69186;BMP280;56298;49.246;9.410;2023-01-31T13:13:27;100224.00;;;5.01
69186;BMP280;56298;49.246;9.410;2023-01-31T13:15:58;100229.66;;;5.05
69186;BMP280;56298;49.246;9.410;2023-01-31T13:18:25;100224.69;;;5.12
69186;BMP280;56298;49.246;9.410;2023-01-31T13:20:56;100217.13;;;5.09
69186;BMP280;56298;49.246;9.410;2023-01-31T13:23:26;100225.13;;;5.00
69186;BMP280;56298;49.246;9.410;2023-01-31T13:26:07;100222.41;;;5.00
69186;BMP280;56298;49.246;9.410;2023-01-31T13:28:42;100215.91;;;5.20
69186;BMP280;56298;49.246;9.410;2023-01-31T13:31:19;100211.63;;;5.14
69186;BMP280;56298;49.246;9.410;2023-01-31T13:34:19;100203.19;;;5.16
69186;BMP280;56298;49.246;9.410;2023-01-31T13:36:49;100199.47;;;5.06
69186;BMP280;56298;49.246;9.410;2023-01-31T13:39:23;100179.50;;;4.97
69186;BMP280;56298;49.246;9.410;2023-01-31T13:41:49;100164.94;;;5.07
69186;BMP280;56298;49.246;9.410;2023-01-31T13:44:15;100165.22;;;5.05
69186;BMP280;56298;49.246;9.410;2023-01-31T13:46:50;100168.63;;;5.16
69186;BMP280;56298;49.246;9.410;2023-01-31T13:52:01;100143.06;;;5.17
69186;BMP280;56298;49.246;9.410;2023-01-31T13:54:38;100140.97;;;5.28
69186;BMP280;56298;49.246;9.410;2023-01-31T13:57:05;100135.78;;;5.32
69186;BMP280;56298;49.246;9.410;2023-01-31T13:59:33;100150.63;;;5.20
69186;BMP280;56298;49.246;9.410;2023-01-31T14:02:01;100127.56;;;5.18
69186;BMP280;56298;49.246;9.410;2023-01-31T14:04:35;100125.28;;;5.25
69186;BMP280;56298;49.246;9.410;2023-01-31T14:09:37;100107.03;;;5.26
69186;BMP280;56298;49.246;9.410;2023-01-31T14:17:11;100130.19;;;5.23
69186;BMP280;56298;49.246;9.410;2023-01-31T14:22:16;100148.09;;;5.24
69186;BMP280;56298;49.246;9.410;2023-01-31T14:33:01;100145.69;;;5.23
69186;BMP280;56298;49.246;9.410;2023-01-31T14:35:51;100145.69;;;5.23
69186;BMP280;56298;49.246;9.410;2023-01-31T14:38:25;100130.91;;;5.10
69186;BMP280;56298;49.246;9.410;2023-01-31T14:46:19;100146.53;;;5.04
69186;BMP280;56298;49.246;9.410;2023-01-31T14:51:30;100141.75;;;4.96
69186;BMP280;56298;49.246;9.410;2023-01-31T14:57:15;100139.38;;;4.89
69186;BMP280;56298;49.246;9.410;2023-01-31T15:07:30;100148.91;;;5.05
69186;BMP280;56298;49.246;9.410;2023-01-31T15:09:55;100144.91;;;5.03
69186;BMP280;56298;49.246;9.410;2023-01-31T15:12:53;100144.91;;;5.03
69186;BMP280;56298;49.246;9.410;2023-01-31T15:15:32;100127.09;;;4.91
69186;BMP280;56298;49.246;9.410;2023-01-31T15:18:01;100139.47;;;4.84
69186;BMP280;56298;49.246;9.410;2023-01-31T15:20:43;100141.69;;;4.76
69186;BMP280;56298;49.246;9.410;2023-01-31T15:23:15;100141.34;;;4.64
69186;BMP280;56298;49.246;9.410;2023-01-31T15:25:43;100131.47;;;4.68
69186;BMP280;56298;49.246;9.410;2023-01-31T15:28:16;100130.50;;;4.59
69186;BMP280;56298;49.246;9.410;2023-01-31T15:30:42;100126.72;;;4.60
69186;BMP280;56298;49.246;9.410;2023-01-31T15:33:17;100151.38;;;4.63
69186;BMP280;56298;49.246;9.410;2023-01-31T15:36:06;100151.38;;;4.63
69186;BMP280;56298;49.246;9.410;2023-01-31T15:38:51;100154.53;;;4.71
69186;BMP280;56298;49.246;9.410;2023-01-31T15:41:26;100152.91;;;4.70
69186;BMP280;56298;49.246;9.410;2023-01-31T15:46:37;100161.59;;;4.72
69186;BMP280;56298;49.246;9.410;2023-01-31T15:49:23;100160.03;;;4.65
69186;BMP280;56298;49.246;9.410;2023-01-31T15:54:32;100166.31;;;4.66
69186;BMP280;56298;49.246;9.410;2023-01-31T15:56:57;100172.91;;;4.60
69186;BMP280;56298;49.246;9.410;2023-01-31T15:59:26;100165.78;;;4.64
69186;BMP280;56298;49.246;9.410;2023-01-31T16:01:56;100163.34;;;4.62
69186;BMP280;56298;49.246;9.410;2023-01-31T16:04:22;100175.06;;;4.58
69186;BMP280;56298;49.246;9.410;2023-01-31T16:06:48;100179.13;;;4.60
69186;BMP280;56298;49.246;9.410;2023-01-31T16:09:40;100173.03;;;4.69
69186;BMP280;56298;49.246;9.410;2023-01-31T16:12:09;100170.13;;;4.65
69186;BMP280;56298;49.246;9.410;2023-01-31T16:14:35;100162.53;;;4.62
69186;BMP280;56298;49.246;9.410;2023-01-31T16:17:01;100170.97;;;4.60
69186;BMP280;56298;49.246;9.410;2023-01-31T16:19:29;100163.97;;;4.54
69186;BMP280;56298;49.246;9.410;2023-01-31T16:21:57;100174.50;;;4.61